Time;durP1;ratioP1;P1;durP2;ratioP2;P2;SDS_P1;SDS_P2;PMS_P1;PMS_P2;Temp;Humidity;BMP_temperature;BMP_pressure;BME280_temperature;BME280_humidity;BME280_pressure;Samples;Min_cycle;Max_cycle;Signal;HPM_P1;HPM_P2
2022/02/27 00:02:18;;;;;;;;;13.25;9.00;;;;;;;;4994282;28;45450;-73
2022/02/27 00:04:43;;;;;;;;;8.25;6.75;;;;;;;;4993855;28;45442;-71
2022/02/27 00:07:09;;;;;;;;;12.75;10.00;;;;;;;;4993675;28;45578;-72
2022/02/27 00:09:34;;;;;;;;;9.00;7.75;;;;;;;;4993108;28;45520;-73
2022/02/27 00:11:59;;;;;;;;;14.75;11.00;;;;;;;;4993411;28;45581;-74
2022/02/27 00:14:24;;;;;;;;;10.25;8.25;;;;;;;;4990155;28;45484;-74
2022/02/27 00:16:50;;;;;;;;;16.00;10.50;;;;;;;;4993562;28;45673;-74
2022/02/27 00:19:15;;;;;;;;;10.00;10.00;;;;;;;;4993672;28;45540;-73
2022/02/27 00:21:41;;;;;;;;;6.75;6.75;;;;;;;;4993708;28;45503;-73
2022/02/27 00:24:06;;;;;;;;;15.75;12.50;;;;;;;;4994054;28;45533;-74
2022/02/27 00:26:31;;;;;;;;;10.25;10.25;;;;;;;;4993720;28;45314;-72
2022/02/27 00:28:57;;;;;;;;;10.75;9.00;;;;;;;;4975903;28;46866;-73
2022/02/27 00:31:22;;;;;;;;;9.75;7.75;;;;;;;;4993448;28;45488;-73
2022/02/27 00:33:47;;;;;;;;;12.25;10.50;;;;;;;;4995369;28;45559;-72
2022/02/27 00:36:12;;;;;;;;;12.75;9.00;;;;;;;;4998094;28;45559;-73
2022/02/27 00:38:38;;;;;;;;;10.00;8.50;;;;;;;;4999510;28;45532;-73
2022/02/27 00:41:03;;;;;;;;;9.00;8.00;;;;;;;;4998139;28;45462;-73
2022/02/27 00:43:28;;;;;;;;;10.75;8.50;;;;;;;;4996970;28;45275;-73
2022/02/27 00:45:53;;;;;;;;;11.00;11.00;;;;;;;;4996564;28;45501;-73
2022/02/27 00:48:18;;;;;;;;;14.50;11.00;;;;;;;;5011670;28;47056;-73
2022/02/27 00:50:44;;;;;;;;;8.50;7.50;;;;;;;;4996267;28;45319;-74
2022/02/27 00:53:09;;;;;;;;;7.50;7.50;;;;;;;;4997916;28;45453;-73
2022/02/27 00:55:35;;;;;;;;;12.25;9.75;;;;;;;;4979132;28;45514;-73
2022/02/27 00:58:00;;;;;;;;;10.75;9.25;;;;;;;;4996408;28;45351;-73
2022/02/27 01:00:26;;;;;;;;;8.00;8.00;;;;;;;;4996694;28;45416;-73
2022/02/27 01:02:51;;;;;;;;;7.50;7.50;;;;;;;;4997163;28;45381;-73
2022/02/27 01:05:16;;;;;;;;;9.00;9.00;;;;;;;;4997766;28;45306;-73
2022/02/27 01:07:41;;;;;;;;;10.00;8.00;;;;;;;;4996374;28;46233;-73
2022/02/27 01:10:07;;;;;;;;;11.50;10.50;;;;;;;;4996229;28;45362;-73
2022/02/27 01:12:32;;;;;;;;;7.50;7.50;;;;;;;;4996517;28;45686;-73
2022/02/27 01:14:57;;;;;;;;;10.00;7.25;;;;;;;;4996278;28;45544;-73
2022/02/27 01:17:23;;;;;;;;;8.25;8.25;;;;;;;;4997847;28;46066;-72
2022/02/27 01:19:49;;;;;;;;;10.75;10.25;;;;;;;;4996228;28;45503;-73
2022/02/27 01:22:14;;;;;;;;;8.75;8.75;;;;;;;;4996483;28;45389;-73
2022/02/27 01:24:39;;;;;;;;;10.00;8.75;;;;;;;;4997335;28;46811;-73
2022/02/27 01:27:06;;;;;;;;;8.00;6.75;;;;;;;;4996399;28;46457;-72
2022/02/27 01:29:31;;;;;;;;;8.00;7.00;;;;;;;;4996013;28;45481;-73
2022/02/27 01:31:57;;;;;;;;;9.50;8.00;;;;;;;;4995964;28;45391;-74
2022/02/27 01:34:22;;;;;;;;;14.00;8.75;;;;;;;;4996101;28;45513;-73
2022/02/27 01:36:47;;;;;;;;;12.00;10.25;;;;;;;;4995971;28;46096;-72
2022/02/27 01:39:12;;;;;;;;;10.75;8.75;;;;;;;;4996480;28;45297;-73
2022/02/27 01:41:38;;;;;;;;;8.25;7.50;;;;;;;;4997075;28;45326;-73
2022/02/27 01:44:03;;;;;;;;;7.50;7.50;;;;;;;;4996557;28;45404;-73
2022/02/27 01:46:28;;;;;;;;;8.25;7.25;;;;;;;;4990019;28;46265;-73
2022/02/27 01:48:53;;;;;;;;;11.75;9.75;;;;;;;;4987962;28;45416;-73
2022/02/27 01:51:19;;;;;;;;;10.75;9.00;;;;;;;;4996201;28;45509;-73
2022/02/27 01:53:44;;;;;;;;;10.25;7.25;;;;;;;;4996191;28;45342;-74
2022/02/27 01:56:09;;;;;;;;;6.00;4.75;;;;;;;;4996617;28;47306;-74
2022/02/27 01:58:34;;;;;;;;;11.75;9.75;;;;;;;;4995283;28;45434;-73
2022/02/27 02:01:00;;;;;;;;;14.00;9.75;;;;;;;;4995973;28;46020;-73
2022/02/27 02:03:26;;;;;;;;;8.00;7.75;;;;;;;;4996118;28;45431;-73
2022/02/27 02:05:52;;;;;;;;;9.50;7.25;;;;;;;;4995911;28;45448;-74
2022/02/27 02:08:18;;;;;;;;;7.50;6.25;;;;;;;;4996436;28;45684;-73
2022/02/27 02:10:43;;;;;;;;;7.50;7.25;;;;;;;;4995708;28;45731;-73
2022/02/27 02:13:09;;;;;;;;;0.00;0.00;;;;;;;;4995657;28;45417;-73
2022/02/27 02:15:34;;;;;;;;;8.25;7.00;;;;;;;;4995628;28;45571;-73
2022/02/27 02:17:59;;;;;;;;;7.75;6.00;;;;;;;;4978173;28;45308;-73
2022/02/27 02:20:25;;;;;;;;;8.00;7.00;;;;;;;;4996703;28;45391;-73
2022/02/27 02:22:50;;;;;;;;;9.75;9.00;;;;;;;;4996031;28;45607;-73
2022/02/27 02:25:15;;;;;;;;;9.50;8.25;;;;;;;;4995053;28;45920;-73
2022/02/27 02:27:40;;;;;;;;;11.25;10.50;;;;;;;;4995045;28;45416;-73
2022/02/27 02:30:09;;;;;;;;;10.75;8.00;;;;;;;;4995138;28;45389;-72
2022/02/27 02:32:44;;;;;;;;;9.00;8.25;;;;;;;;4995154;28;45524;-73
2022/02/27 02:35:09;;;;;;;;;7.75;7.75;;;;;;;;4995999;28;45333;-73
2022/02/27 02:37:34;;;;;;;;;8.25;7.00;;;;;;;;4995162;28;45290;-73
2022/02/27 02:40:01;;;;;;;;;6.25;6.25;;;;;;;;4994628;28;45576;-73
2022/02/27 02:42:26;;;;;;;;;7.00;6.00;;;;;;;;4995143;28;45439;-73
2022/02/27 02:44:51;;;;;;;;;8.50;7.00;;;;;;;;4994968;28;46165;-73
2022/02/27 02:47:17;;;;;;;;;13.00;7.50;;;;;;;;4995820;28;45404;-73
2022/02/27 02:49:42;;;;;;;;;5.50;3.00;;;;;;;;5010630;28;45531;-73
2022/02/27 02:52:07;;;;;;;;;4.50;4.50;;;;;;;;4994953;28;45555;-73
2022/02/27 02:54:32;;;;;;;;;7.00;6.25;;;;;;;;4994662;28;45994;-72
2022/02/27 02:56:58;;;;;;;;;7.50;7.50;;;;;;;;4995078;28;45416;-73
2022/02/27 02:59:24;;;;;;;;;7.25;6.00;;;;;;;;4995637;28;45426;-73
2022/02/27 03:01:49;;;;;;;;;6.75;6.00;;;;;;;;4994878;28;45389;-73
2022/02/27 03:04:14;;;;;;;;;4.00;3.50;;;;;;;;4994962;28;46105;-73
2022/02/27 03:06:40;;;;;;;;;10.75;7.00;;;;;;;;4995022;28;45763;-73
2022/02/27 03:09:05;;;;;;;;;9.25;8.00;;;;;;;;4995109;28;45539;-73
2022/02/27 03:11:30;;;;;;;;;9.50;7.00;;;;;;;;4995156;28;45385;-73
2022/02/27 03:14:00;;;;;;;;;8.25;6.50;;;;;;;;4995092;28;46023;-73
2022/02/27 03:16:26;;;;;;;;;8.50;7.50;;;;;;;;5009472;28;45443;-73
2022/02/27 03:18:51;;;;;;;;;6.00;6.00;;;;;;;;4994863;28;45515;-73
2022/02/27 03:21:16;;;;;;;;;9.00;7.00;;;;;;;;4995098;28;45164;-73
2022/02/27 03:23:41;;;;;;;;;7.25;7.00;;;;;;;;4991746;28;46048;-73
2022/02/27 03:26:07;;;;;;;;;9.00;6.25;;;;;;;;4995056;28;45306;-73
2022/02/27 03:28:32;;;;;;;;;8.00;7.00;;;;;;;;4994845;28;45546;-73
2022/02/27 03:30:57;;;;;;;;;8.00;7.00;;;;;;;;4995036;28;45326;-73
2022/02/27 03:33:22;;;;;;;;;6.75;6.00;;;;;;;;4994781;28;45916;-73
2022/02/27 03:35:48;;;;;;;;;9.00;6.00;;;;;;;;4994762;28;45437;-73
2022/02/27 03:38:13;;;;;;;;;8.75;7.50;;;;;;;;4995020;28;45303;-73
2022/02/27 03:40:38;;;;;;;;;4.75;4.75;;;;;;;;4994483;28;45452;-73
2022/02/27 03:43:04;;;;;;;;;8.00;6.00;;;;;;;;4976755;28;46308;-73
2022/02/27 03:45:29;;;;;;;;;8.25;8.00;;;;;;;;4994364;28;45485;-72
2022/02/27 03:47:55;;;;;;;;;3.75;3.75;;;;;;;;4994487;28;45410;-73
2022/02/27 03:50:20;;;;;;;;;11.50;8.00;;;;;;;;4995059;28;45369;-73
2022/02/27 03:52:45;;;;;;;;;7.75;6.75;;;;;;;;4993705;28;46450;-73
2022/02/27 03:55:11;;;;;;;;;7.75;6.25;;;;;;;;4993575;28;45255;-73
2022/02/27 03:57:37;;;;;;;;;6.75;6.75;;;;;;;;4993743;28;45364;-73
2022/02/27 04:00:04;;;;;;;;;6.75;4.00;;;;;;;;4993774;28;45342;-73
2022/02/27 04:02:29;;;;;;;;;4.00;4.00;;;;;;;;4994430;28;46153;-74
2022/02/27 04:04:54;;;;;;;;;7.25;5.00;;;;;;;;4994363;28;45516;-73
2022/02/27 04:07:19;;;;;;;;;3.75;3.75;;;;;;;;4993740;28;45472;-73
2022/02/27 04:09:45;;;;;;;;;4.00;4.00;;;;;;;;4996528;28;45409;-73
2022/02/27 04:12:10;;;;;;;;;7.00;7.00;;;;;;;;4997080;28;46172;-73
2022/02/27 04:14:35;;;;;;;;;6.00;6.00;;;;;;;;4997402;28;45409;-73
2022/02/27 04:17:01;;;;;;;;;7.00;5.50;;;;;;;;4997849;28;45481;-74
2022/02/27 04:19:26;;;;;;;;;7.50;6.25;;;;;;;;4997493;28;45528;-73
2022/02/27 04:21:51;;;;;;;;;7.00;7.00;;;;;;;;4996739;28;46186;-72
2022/02/27 04:24:16;;;;;;;;;6.00;6.00;;;;;;;;4997640;28;45379;-73
2022/02/27 04:26:42;;;;;;;;;6.00;6.00;;;;;;;;4997767;28;45567;-73
2022/02/27 04:29:07;;;;;;;;;7.25;6.00;;;;;;;;4997852;28;45385;-73
2022/02/27 04:31:32;;;;;;;;;7.00;5.75;;;;;;;;4997079;28;45375;-73
2022/02/27 04:33:58;;;;;;;;;6.50;6.00;;;;;;;;4997630;28;45775;-74
2022/02/27 04:36:24;;;;;;;;;6.75;6.00;;;;;;;;5012823;28;45417;-76
2022/02/27 04:38:52;;;;;;;;;8.50;6.25;;;;;;;;4997282;28;45594;-75
2022/02/27 04:41:18;;;;;;;;;7.50;5.50;;;;;;;;4997999;28;47192;-75
2022/02/27 04:43:44;;;;;;;;;4.75;4.25;;;;;;;;5012233;28;45376;-75
2022/02/27 04:46:09;;;;;;;;;7.75;6.75;;;;;;;;4997199;28;45447;-75
2022/02/27 04:48:34;;;;;;;;;5.00;5.00;;;;;;;;4997314;28;45488;-76
2022/02/27 04:50:59;;;;;;;;;6.25;6.00;;;;;;;;4996915;28;46230;-76
2022/02/27 04:53:24;;;;;;;;;4.00;4.00;;;;;;;;4997797;28;45414;-75
2022/02/27 04:55:50;;;;;;;;;4.00;3.00;;;;;;;;4996880;28;45345;-75
2022/02/27 04:58:15;;;;;;;;;8.75;6.00;;;;;;;;4996891;28;45270;-76
2022/02/27 05:00:40;;;;;;;;;5.00;4.50;;;;;;;;4996646;28;45479;-76
2022/02/27 05:03:05;;;;;;;;;5.50;5.50;;;;;;;;4996822;28;45439;-76
2022/02/27 05:05:30;;;;;;;;;8.75;7.00;;;;;;;;4996980;28;45515;-77
2022/02/27 05:07:56;;;;;;;;;7.50;6.00;;;;;;;;4996339;28;45294;-76
2022/02/27 05:10:21;;;;;;;;;7.50;6.00;;;;;;;;4996112;28;45385;-75
2022/02/27 05:12:46;;;;;;;;;8.25;6.75;;;;;;;;4996427;28;45346;-76
2022/02/27 05:15:11;;;;;;;;;7.00;5.50;;;;;;;;4996652;28;45463;-75
2022/02/27 05:17:37;;;;;;;;;2.50;2.50;;;;;;;;4996769;28;45384;-76
2022/02/27 05:20:03;;;;;;;;;4.25;4.25;;;;;;;;4996531;28;45972;-76
2022/02/27 05:22:28;;;;;;;;;6.25;3.50;;;;;;;;4996186;28;45275;-76
2022/02/27 05:24:54;;;;;;;;;5.00;2.00;;;;;;;;4996762;28;45685;-76
2022/02/27 05:27:19;;;;;;;;;3.50;3.50;;;;;;;;4996848;28;45715;-74
2022/02/27 05:29:44;;;;;;;;;6.25;6.25;;;;;;;;4996457;28;46112;-77
2022/02/27 05:32:09;;;;;;;;;6.75;4.00;;;;;;;;4996995;28;45366;-74
2022/02/27 05:34:35;;;;;;;;;6.50;4.75;;;;;;;;4996138;28;45426;-76
2022/02/27 05:37:00;;;;;;;;;4.00;3.00;;;;;;;;4996385;28;45488;-74
2022/02/27 05:39:25;;;;;;;;;6.75;5.50;;;;;;;;4996217;28;46505;-74
2022/02/27 05:41:51;;;;;;;;;6.75;6.00;;;;;;;;4996447;28;45358;-76
2022/02/27 05:44:16;;;;;;;;;8.75;4.25;;;;;;;;4997320;28;45345;-76
2022/02/27 05:46:41;;;;;;;;;6.75;6.00;;;;;;;;4996660;28;45516;-76
2022/02/27 05:49:06;;;;;;;;;8.50;4.25;;;;;;;;4995595;28;46445;-76
2022/02/27 05:51:32;;;;;;;;;8.50;7.50;;;;;;;;4996191;28;45404;-73
2022/02/27 05:53:57;;;;;;;;;7.00;4.00;;;;;;;;4996656;28;45537;-73
2022/02/27 05:56:22;;;;;;;;;8.75;6.25;;;;;;;;4997212;28;45434;-73
2022/02/27 05:58:47;;;;;;;;;4.00;4.00;;;;;;;;4995949;28;45285;-73
2022/02/27 06:01:12;;;;;;;;;7.00;7.00;;;;;;;;4996145;28;45270;-73
2022/02/27 06:03:38;;;;;;;;;6.25;6.25;;;;;;;;4996032;28;45237;-73
2022/02/27 06:06:03;;;;;;;;;6.00;6.00;;;;;;;;4996063;28;45504;-73
2022/02/27 06:08:30;;;;;;;;;8.25;7.00;;;;;;;;4995791;28;46142;-73
2022/02/27 06:10:55;;;;;;;;;5.50;4.00;;;;;;;;4995648;28;45395;-73
2022/02/27 06:13:20;;;;;;;;;7.00;6.50;;;;;;;;4995720;28;45424;-72
2022/02/27 06:15:45;;;;;;;;;6.00;6.00;;;;;;;;4995656;28;45275;-73
2022/02/27 06:18:10;;;;;;;;;6.00;4.25;;;;;;;;4995365;28;45399;-73
2022/02/27 06:20:36;;;;;;;;;11.25;7.00;;;;;;;;4995906;28;46216;-73
2022/02/27 06:23:01;;;;;;;;;8.00;6.75;;;;;;;;4978648;28;45315;-74
2022/02/27 06:25:26;;;;;;;;;7.25;6.00;;;;;;;;4995485;28;45428;-72
2022/02/27 06:27:51;;;;;;;;;6.50;6.50;;;;;;;;4995213;28;47274;-73
2022/02/27 06:30:19;;;;;;;;;6.75;6.75;;;;;;;;4995550;28;45384;-74
2022/02/27 06:32:47;;;;;;;;;6.75;4.25;;;;;;;;4994786;28;45992;-73
2022/02/27 06:35:12;;;;;;;;;8.50;7.50;;;;;;;;4996238;28;45431;-73
2022/02/27 06:37:38;;;;;;;;;9.50;5.75;;;;;;;;4995366;28;46263;-74
2022/02/27 06:40:04;;;;;;;;;9.25;6.75;;;;;;;;4995148;28;45297;-73
2022/02/27 06:42:29;;;;;;;;;6.75;4.50;;;;;;;;4995383;28;45431;-73
2022/02/27 06:44:54;;;;;;;;;3.00;3.00;;;;;;;;4995025;28;45433;-73
2022/02/27 06:47:20;;;;;;;;;10.50;7.00;;;;;;;;4995476;28;46030;-73
2022/02/27 06:49:45;;;;;;;;;9.75;6.50;;;;;;;;4995461;28;45475;-73
2022/02/27 06:52:10;;;;;;;;;7.00;6.25;;;;;;;;4995223;28;45482;-73
2022/02/27 06:54:35;;;;;;;;;8.50;6.00;;;;;;;;4994899;28;45445;-75
2022/02/27 06:57:01;;;;;;;;;9.00;6.75;;;;;;;;4995119;28;45233;-73
2022/02/27 06:59:26;;;;;;;;;8.00;7.00;;;;;;;;4995641;28;45453;-73
2022/02/27 07:01:51;;;;;;;;;7.00;6.25;;;;;;;;4994680;28;45436;-73
2022/02/27 07:04:16;;;;;;;;;6.25;5.00;;;;;;;;4995380;28;45375;-73
2022/02/27 07:06:41;;;;;;;;;3.75;3.00;;;;;;;;4994835;28;47289;-73
2022/02/27 07:09:07;;;;;;;;;9.50;6.00;;;;;;;;4994582;28;45527;-74
2022/02/27 07:11:32;;;;;;;;;6.25;6.00;;;;;;;;4994864;28;45405;-74
2022/02/27 07:13:57;;;;;;;;;7.00;5.50;;;;;;;;4995141;28;45759;-72
2022/02/27 07:16:23;;;;;;;;;3.75;2.00;;;;;;;;4994319;28;45633;-74
2022/02/27 07:18:49;;;;;;;;;3.75;3.75;;;;;;;;4994385;28;45533;-74
2022/02/27 07:21:15;;;;;;;;;4.25;3.00;;;;;;;;4994440;28;45420;-73
2022/02/27 07:23:40;;;;;;;;;7.50;6.00;;;;;;;;4994603;28;45536;-72
2022/02/27 07:26:05;;;;;;;;;6.50;6.50;;;;;;;;4994221;28;46056;-74
2022/02/27 07:28:30;;;;;;;;;4.00;4.00;;;;;;;;4994001;28;45455;-74
2022/02/27 07:30:55;;;;;;;;;7.25;6.25;;;;;;;;4994036;28;45397;-74
2022/02/27 07:33:23;;;;;;;;;5.25;1.00;;;;;;;;4994110;28;45342;-73
2022/02/27 07:35:48;;;;;;;;;7.75;7.00;;;;;;;;4994054;28;46304;-74
2022/02/27 07:38:13;;;;;;;;;3.00;3.00;;;;;;;;4994269;28;45449;-73
2022/02/27 07:40:38;;;;;;;;;8.25;7.50;;;;;;;;4994136;28;45476;-73
2022/02/27 07:43:03;;;;;;;;;9.00;6.25;;;;;;;;4993063;28;45873;-73
2022/02/27 07:45:29;;;;;;;;;8.25;8.25;;;;;;;;4993274;28;47161;-73
2022/02/27 07:47:54;;;;;;;;;5.50;5.50;;;;;;;;4994336;28;45429;-73
2022/02/27 07:50:19;;;;;;;;;6.00;5.50;;;;;;;;4994698;28;45547;-72
2022/02/27 07:52:44;;;;;;;;;8.25;6.50;;;;;;;;4994017;28;45508;-73
2022/02/27 07:55:10;;;;;;;;;6.00;4.00;;;;;;;;4994055;28;47143;-73
2022/02/27 07:57:35;;;;;;;;;7.25;6.00;;;;;;;;4993477;28;45360;-74
2022/02/27 08:00:00;;;;;;;;;4.00;4.00;;;;;;;;4993736;28;45820;-73
2022/02/27 08:02:25;;;;;;;;;7.25;6.50;;;;;;;;4994601;28;45354;-73
2022/02/27 08:04:51;;;;;;;;;6.50;4.50;;;;;;;;4993990;28;46711;-74
2022/02/27 08:07:16;;;;;;;;;3.50;3.50;;;;;;;;5008899;28;46073;-73
2022/02/27 08:09:41;;;;;;;;;7.25;6.50;;;;;;;;4993398;28;45442;-74
2022/02/27 08:12:07;;;;;;;;;8.00;4.00;;;;;;;;4993823;28;45441;-75
2022/02/27 08:14:32;;;;;;;;;1.25;1.25;;;;;;;;4993740;28;46183;-75
2022/02/27 08:16:57;;;;;;;;;5.50;5.50;;;;;;;;4993878;28;45518;-74
2022/02/27 08:19:22;;;;;;;;;5.50;3.00;;;;;;;;5008758;28;45500;-74
2022/02/27 08:21:47;;;;;;;;;9.00;7.25;;;;;;;;4993838;28;45314;-77
2022/02/27 08:24:13;;;;;;;;;5.50;5.50;;;;;;;;4994038;28;46893;-75
2022/02/27 08:26:39;;;;;;;;;5.25;5.25;;;;;;;;4993860;28;49343;-73
2022/02/27 08:29:06;;;;;;;;;4.75;4.75;;;;;;;;4992671;28;45405;-77
2022/02/27 08:31:31;;;;;;;;;7.25;5.00;;;;;;;;4989885;28;45494;-75
2022/02/27 08:33:57;;;;;;;;;5.25;5.25;;;;;;;;4992797;28;45468;-78
2022/02/27 08:36:22;;;;;;;;;5.00;4.00;;;;;;;;4993154;28;45490;-77
2022/02/27 08:38:47;;;;;;;;;8.00;7.50;;;;;;;;4992540;28;45661;-77
2022/02/27 08:41:13;;;;;;;;;5.50;5.50;;;;;;;;4993510;28;45400;-75
2022/02/27 08:43:38;;;;;;;;;5.00;5.00;;;;;;;;4992948;28;46033;-75
2022/02/27 08:46:03;;;;;;;;;6.00;4.25;;;;;;;;4993650;28;45478;-73
2022/02/27 08:48:30;;;;;;;;;8.75;5.00;;;;;;;;4993558;28;45558;-77
2022/02/27 08:50:55;;;;;;;;;4.50;4.50;;;;;;;;4993131;28;45342;-74
2022/02/27 08:53:20;;;;;;;;;4.00;4.00;;;;;;;;4993539;28;45496;-73
2022/02/27 08:55:45;;;;;;;;;5.00;5.00;;;;;;;;4995486;28;45167;-74
2022/02/27 08:58:11;;;;;;;;;11.25;5.50;;;;;;;;4995240;28;45815;-74
2022/02/27 09:00:36;;;;;;;;;6.75;6.75;;;;;;;;4998063;28;45455;-75
2022/02/27 09:03:01;;;;;;;;;6.00;5.00;;;;;;;;4997094;28;45436;-74
2022/02/27 09:05:26;;;;;;;;;6.50;6.50;;;;;;;;4997525;28;45481;-74
2022/02/27 09:07:51;;;;;;;;;3.50;3.00;;;;;;;;4997119;28;45242;-76
2022/02/27 09:10:17;;;;;;;;;4.50;3.50;;;;;;;;4996664;28;45298;-76
2022/02/27 09:12:43;;;;;;;;;5.25;5.00;;;;;;;;5010777;28;46451;-74
2022/02/27 09:15:09;;;;;;;;;4.00;3.50;;;;;;;;4996345;28;45480;-75
2022/02/27 09:17:34;;;;;;;;;5.00;3.75;;;;;;;;4996729;28;45371;-75
2022/02/27 09:19:59;;;;;;;;;5.50;4.75;;;;;;;;4997326;28;45478;-73
2022/02/27 09:22:25;;;;;;;;;5.00;3.00;;;;;;;;4996334;28;46436;-78
2022/02/27 09:24:50;;;;;;;;;3.25;3.00;;;;;;;;4996755;28;45334;-74
2022/02/27 09:27:17;;;;;;;;;6.00;3.25;;;;;;;;4998849;28;45441;-76
2022/02/27 09:29:42;;;;;;;;;7.00;5.00;;;;;;;;4997137;28;45467;-77
2022/02/27 09:32:07;;;;;;;;;4.75;4.75;;;;;;;;4995724;28;46928;-76
2022/02/27 09:34:33;;;;;;;;;6.00;5.00;;;;;;;;4995763;28;45464;-75
2022/02/27 09:36:58;;;;;;;;;6.00;6.00;;;;;;;;4996027;28;45433;-74
2022/02/27 09:39:23;;;;;;;;;5.00;3.75;;;;;;;;4995942;28;45460;-74
2022/02/27 09:41:48;;;;;;;;;9.50;7.00;;;;;;;;4995328;28;46114;-75
2022/02/27 09:44:15;;;;;;;;;8.00;5.75;;;;;;;;4996168;28;45538;-75
2022/02/27 09:46:42;;;;;;;;;4.25;4.25;;;;;;;;4996434;28;45405;-74
2022/02/27 09:49:07;;;;;;;;;5.50;5.00;;;;;;;;4995825;28;45452;-71
2022/02/27 09:51:33;;;;;;;;;4.25;4.25;;;;;;;;4995873;28;46036;-73
2022/02/27 09:53:59;;;;;;;;;6.50;6.50;;;;;;;;4997736;28;45984;-74
2022/02/27 09:56:25;;;;;;;;;16.50;14.00;;;;;;;;4995802;28;45599;-77
2022/02/27 09:58:50;;;;;;;;;9.50;8.75;;;;;;;;4995953;28;45506;-81
2022/02/27 10:01:17;;;;;;;;;11.75;8.00;;;;;;;;4994739;28;45544;-75
2022/02/27 10:03:44;;;;;;;;;7.50;5.25;;;;;;;;4995603;28;45624;-75
2022/02/27 10:06:11;;;;;;;;;5.00;4.50;;;;;;;;4996355;28;45234;-77
2022/02/27 10:08:38;;;;;;;;;6.00;4.00;;;;;;;;4997560;28;45543;-78
2022/02/27 10:11:03;;;;;;;;;5.00;5.00;;;;;;;;4996496;28;46013;-75
2022/02/27 10:13:42;;;;;;;;;6.50;6.50;;;;;;;;4995463;28;45464;-77
2022/02/27 10:16:10;;;;;;;;;6.25;6.25;;;;;;;;4991473;28;45409;-75
2022/02/27 10:18:38;;;;;;;;;7.75;5.00;;;;;;;;4988000;28;45411;-76
2022/02/27 10:21:04;;;;;;;;;8.00;8.00;;;;;;;;4994543;28;45635;-77
2022/02/27 10:23:29;;;;;;;;;8.25;7.75;;;;;;;;4995468;28;45441;-70
2022/02/27 10:25:54;;;;;;;;;8.50;7.50;;;;;;;;4994755;28;45357;-72
2022/02/27 10:28:20;;;;;;;;;3.00;3.00;;;;;;;;4994531;28;45432;-73
2022/02/27 10:30:46;;;;;;;;;9.00;6.50;;;;;;;;4993839;28;45995;-75
2022/02/27 10:33:12;;;;;;;;;5.00;5.00;;;;;;;;4992267;28;45460;-74
2022/02/27 10:35:55;;;;;;;;;6.00;2.00;;;;;;;;4995907;28;45371;-79
2022/02/27 10:41:08;;;;;;;;;7.00;7.00;;;;;;;;4994586;28;45990;-71
2022/02/27 10:43:39;;;;;;;;;5.50;5.50;;;;;;;;4994863;28;45441;-74
2022/02/27 10:46:05;;;;;;;;;8.75;5.00;;;;;;;;5002506;28;45270;-74
2022/02/27 10:48:31;;;;;;;;;5.50;5.00;;;;;;;;4994761;28;45548;-73
2022/02/27 10:51:03;;;;;;;;;5.00;5.00;;;;;;;;4994168;28;45866;-73
2022/02/27 10:53:35;;;;;;;;;6.00;4.75;;;;;;;;4990624;28;45470;-74
2022/02/27 10:56:03;;;;;;;;;9.75;9.00;;;;;;;;4994535;28;45433;-74
2022/02/27 10:58:35;;;;;;;;;15.75;13.75;;;;;;;;4994381;28;45504;-75
2022/02/27 11:01:05;;;;;;;;;8.25;8.25;;;;;;;;4993609;28;45624;-76
2022/02/27 11:03:35;;;;;;;;;10.50;7.50;;;;;;;;4994133;28;45319;-76
2022/02/27 11:06:01;;;;;;;;;8.75;6.00;;;;;;;;4979411;28;45594;-77
2022/02/27 11:08:27;;;;;;;;;5.00;5.00;;;;;;;;4995394;28;45333;-78
2022/02/27 11:10:52;;;;;;;;;4.25;4.25;;;;;;;;4994686;28;46098;-75
2022/02/27 11:13:18;;;;;;;;;4.25;4.00;;;;;;;;4996055;28;45485;-89
2022/02/27 11:15:44;;;;;;;;;4.50;4.50;;;;;;;;4996706;28;45583;-89
2022/02/27 11:18:09;;;;;;;;;6.00;6.00;;;;;;;;4996132;28;48994;-87
2022/02/27 11:20:35;;;;;;;;;5.50;5.50;;;;;;;;4994379;28;45534;-87
2022/02/27 11:23:00;;;;;;;;;6.75;5.75;;;;;;;;4994017;28;45426;-83
2022/02/27 11:25:27;;;;;;;;;8.00;5.50;;;;;;;;4993932;28;45324;-81
2022/02/27 11:27:53;;;;;;;;;5.25;5.25;;;;;;;;4994286;28;45372;-84
2022/02/27 11:30:23;;;;;;;;;4.00;4.00;;;;;;;;4999989;28;46346;-94
2022/02/27 11:32:49;;;;;;;;;4.25;4.25;;;;;;;;4994027;28;45529;-77
2022/02/27 11:35:34;;;;;;;;;7.00;4.75;;;;;;;;4991527;28;45370;-78
2022/02/27 11:38:00;;;;;;;;;5.25;4.25;;;;;;;;4992997;28;45574;-79
2022/02/27 11:40:28;;;;;;;;;4.75;4.75;;;;;;;;4992563;28;46218;-78
2022/02/27 11:42:53;;;;;;;;;7.00;6.00;;;;;;;;4993877;28;45443;-76
2022/02/27 11:45:38;;;;;;;;;8.25;5.50;;;;;;;;4992976;28;45357;-77
2022/02/27 11:48:04;;;;;;;;;6.00;5.25;;;;;;;;4978222;28;45274;-78
2022/02/27 11:50:31;;;;;;;;;5.25;5.00;;;;;;;;4993655;28;45676;-76
2022/02/27 11:52:57;;;;;;;;;7.25;7.25;;;;;;;;4992833;28;45461;-74
2022/02/27 11:55:41;;;;;;;;;12.00;10.00;;;;;;;;4992662;28;45417;-74
2022/02/27 11:58:20;;;;;;;;;4.50;4.50;;;;;;;;4992518;28;45314;-77
2022/02/27 12:00:45;;;;;;;;;6.50;6.25;;;;;;;;4993032;28;46298;-75
2022/02/27 12:03:29;;;;;;;;;6.00;4.00;;;;;;;;4993052;28;45603;-74
2022/02/27 12:05:55;;;;;;;;;6.75;6.00;;;;;;;;4994088;28;45378;-79
2022/02/27 12:08:21;;;;;;;;;6.50;5.50;;;;;;;;4994217;28;45366;-76
2022/02/27 12:10:50;;;;;;;;;5.00;5.00;;;;;;;;4993403;28;45408;-75
2022/02/27 12:13:26;;;;;;;;;10.00;8.75;;;;;;;;4993505;28;45484;-74
2022/02/27 12:16:03;;;;;;;;;5.00;5.00;;;;;;;;4993794;28;45483;-75
2022/02/27 12:18:28;;;;;;;;;9.00;8.00;;;;;;;;4993851;28;45514;-75
2022/02/27 12:20:56;;;;;;;;;4.75;4.75;;;;;;;;4993255;28;46926;-74
2022/02/27 12:23:28;;;;;;;;;5.00;4.00;;;;;;;;4994396;28;45484;-73
2022/02/27 12:25:54;;;;;;;;;5.00;5.00;;;;;;;;4993559;28;45573;-74
2022/02/27 12:28:38;;;;;;;;;11.25;7.75;;;;;;;;4993311;28;45442;-74
2022/02/27 12:31:04;;;;;;;;;16.50;14.50;;;;;;;;4996337;28;45620;-74
2022/02/27 12:33:29;;;;;;;;;15.50;15.50;;;;;;;;4998038;28;45566;-74
2022/02/27 12:35:58;;;;;;;;;10.00;9.75;;;;;;;;4998040;28;45368;-75
2022/02/27 12:38:24;;;;;;;;;7.25;7.25;;;;;;;;4996519;28;45652;-74
2022/02/27 12:40:57;;;;;;;;;6.75;5.75;;;;;;;;4977556;28;48199;-74
2022/02/27 12:43:22;;;;;;;;;9.50;9.50;;;;;;;;4996286;28;45590;-75
2022/02/27 12:45:47;;;;;;;;;5.25;4.50;;;;;;;;4996260;28;45291;-73
2022/02/27 12:48:16;;;;;;;;;6.00;5.75;;;;;;;;4995944;28;45551;-73
2022/02/27 12:50:51;;;;;;;;;8.00;6.33;;;;;;;;4996212;28;47032;-75
2022/02/27 12:53:16;;;;;;;;;9.25;9.25;;;;;;;;4995696;28;45335;-73
2022/02/27 12:55:42;;;;;;;;;11.00;8.67;;;;;;;;4995760;28;45546;-74
2022/02/27 12:58:08;;;;;;;;;13.00;12.50;;;;;;;;4995674;28;45533;-75
2022/02/27 13:00:34;;;;;;;;;8.33;7.33;;;;;;;;4995830;28;47106;-74
2022/02/27 13:03:10;;;;;;;;;7.25;5.25;;;;;;;;4995670;28;45579;-74
2022/02/27 13:05:36;;;;;;;;;4.25;4.25;;;;;;;;4993086;28;45348;-74
2022/02/27 13:08:02;;;;;;;;;6.00;6.00;;;;;;;;4996382;28;45353;-74
2022/02/27 13:10:28;;;;;;;;;6.00;6.00;;;;;;;;4995570;28;46939;-75
2022/02/27 13:12:53;;;;;;;;;7.00;6.50;;;;;;;;4995829;28;45444;-74
2022/02/27 13:15:19;;;;;;;;;6.75;5.00;;;;;;;;4996637;28;45446;-75
2022/02/27 13:17:45;;;;;;;;;7.67;4.33;;;;;;;;4996461;28;47115;-75
2022/02/27 13:20:12;;;;;;;;;6.75;5.75;;;;;;;;4994221;28;46325;-74
2022/02/27 13:22:38;;;;;;;;;9.25;7.50;;;;;;;;4995646;28;45411;-76
2022/02/27 13:25:05;;;;;;;;;12.00;12.00;;;;;;;;4996160;28;45500;-75
2022/02/27 13:27:35;;;;;;;;;7.00;6.00;;;;;;;;4996105;28;47792;-75
2022/02/27 13:30:00;;;;;;;;;9.50;8.00;;;;;;;;4980508;28;45544;-75
2022/02/27 13:32:28;;;;;;;;;6.00;6.00;;;;;;;;4996131;28;45203;-75
2022/02/27 13:34:54;;;;;;;;;15.25;14.25;;;;;;;;4995763;28;45303;-75
2022/02/27 13:37:23;;;;;;;;;6.00;6.00;;;;;;;;4977487;28;45510;-75
2022/02/27 13:39:56;;;;;;;;;8.25;8.25;;;;;;;;4995312;28;45975;-73
2022/02/27 13:42:22;;;;;;;;;6.00;6.00;;;;;;;;4994560;28;45563;-74
2022/02/27 13:44:47;;;;;;;;;16.25;13.50;;;;;;;;4995095;28;45567;-75
2022/02/27 13:47:21;;;;;;;;;12.50;9.25;;;;;;;;4995657;28;45388;-75
2022/02/27 13:49:46;;;;;;;;;5.67;5.67;;;;;;;;4995153;28;46387;-74
2022/02/27 13:52:17;;;;;;;;;7.00;5.50;;;;;;;;4995542;28;45519;-75
2022/02/27 13:54:42;;;;;;;;;9.67;7.67;;;;;;;;4995795;28;45369;-76
2022/02/27 13:57:09;;;;;;;;;7.50;6.00;;;;;;;;4995949;28;45563;-75
2022/02/27 13:59:52;;;;;;;;;10.33;7.33;;;;;;;;4995614;28;47423;-76
2022/02/27 14:02:29;;;;;;;;;6.33;5.00;;;;;;;;4994664;28;45383;-75
2022/02/27 14:05:06;;;;;;;;;6.33;6.33;;;;;;;;4977363;28;45443;-75
2022/02/27 14:07:32;;;;;;;;;8.00;8.00;;;;;;;;4995238;28;45519;-75
2022/02/27 14:09:57;;;;;;;;;8.75;7.25;;;;;;;;4994303;28;45604;-75
2022/02/27 14:12:23;;;;;;;;;6.00;6.00;;;;;;;;5010259;28;45236;-75
2022/02/27 14:14:49;;;;;;;;;7.33;6.67;;;;;;;;4977293;28;45702;-75
2022/02/27 14:17:19;;;;;;;;;6.75;6.75;;;;;;;;4995053;28;45587;-75
2022/02/27 14:19:45;;;;;;;;;6.00;6.00;;;;;;;;4994291;28;46218;-74
2022/02/27 14:22:10;;;;;;;;;7.75;6.00;;;;;;;;4994427;28;45344;-74
2022/02/27 14:24:43;;;;;;;;;7.33;7.00;;;;;;;;4994577;28;45420;-74
2022/02/27 14:27:08;;;;;;;;;6.75;6.00;;;;;;;;4994753;28;45459;-75
2022/02/27 14:29:37;;;;;;;;;5.75;5.75;;;;;;;;4994523;28;47327;-75
2022/02/27 14:32:20;;;;;;;;;8.50;8.50;;;;;;;;4993104;28;45397;-75
2022/02/27 14:34:45;;;;;;;;;9.50;7.75;;;;;;;;4994069;28;45370;-75
2022/02/27 14:37:10;;;;;;;;;13.00;12.00;;;;;;;;4993858;28;45291;-73
2022/02/27 14:39:35;;;;;;;;;6.00;6.00;;;;;;;;4994689;28;47275;-75